Time;durP1;ratioP1;P1;durP2;ratioP2;P2;SDS_P1;SDS_P2;PMS_P1;PMS_P2;Temp;Humidity;BMP_temperature;BMP_pressure;BME280_temperature;BME280_humidity;BME280_pressure;Samples;Min_cycle;Max_cycle;Signal;HPM_P1;HPM_P2
2023/05/09 00:00:35;;;;;;;;;;;;;;;11.28;82.15;101450.81;4986751;28;19922;-93
2023/05/09 00:03:04;;;;;;;;;;;;;;;11.40;81.48;101452.34;4993425;28;19925;-91
2023/05/09 00:05:30;;;;;;;;;;;;;;;11.35;81.21;101442.00;5007797;28;20016;-90
2023/05/09 00:07:55;;;;;;;;;;;;;;;11.41;81.32;101441.44;4992211;28;20024;-91
2023/05/09 00:10:21;;;;;;;;;;;;;;;11.48;80.19;101435.47;4975932;28;19929;-91
2023/05/09 00:12:48;;;;;;;;;;;;;;;11.46;80.65;101443.69;5010757;28;19921;-91
2023/05/09 00:15:14;;;;;;;;;;;;;;;11.52;81.18;101437.72;4990411;28;19949;-92
2023/05/09 00:17:40;;;;;;;;;;;;;;;11.55;80.69;101437.41;4996617;28;19925;-88
2023/05/09 00:20:11;;;;;;;;;;;;;;;11.54;80.14;101434.84;4992167;28;19961;-89
2023/05/09 00:22:37;;;;;;;;;;;;;;;11.52;80.46;101434.16;4979116;28;19929;-90
2023/05/09 00:25:06;;;;;;;;;;;;;;;11.52;80.16;101435.03;5003522;28;19985;-91
2023/05/09 00:27:33;;;;;;;;;;;;;;;11.57;79.85;101446.19;4997650;28;20004;-92
2023/05/09 00:29:59;;;;;;;;;;;;;;;11.60;79.72;101443.19;5020719;28;19917;-92
2023/05/09 00:32:39;;;;;;;;;;;;;;;11.64;79.56;101451.00;4995669;28;19917;-94
2023/05/09 00:35:07;;;;;;;;;;;;;;;11.56;79.65;101447.16;5007231;28;19976;-91
2023/05/09 00:37:32;;;;;;;;;;;;;;;11.66;79.16;101452.53;5010010;28;20327;-92
2023/05/09 00:40:00;;;;;;;;;;;;;;;11.69;78.76;101460.31;4978719;28;20334;-91
2023/05/09 00:42:26;;;;;;;;;;;;;;;11.58;78.83;101458.66;4986149;28;20273;-91
2023/05/09 00:44:57;;;;;;;;;;;;;;;11.56;79.65;101466.03;4990475;28;19925;-91
2023/05/09 00:47:48;;;;;;;;;;;;;;;11.61;78.99;101468.28;5007943;28;19936;-91
2023/05/09 00:50:39;;;;;;;;;;;;;;;11.65;79.20;101463.47;5027468;28;19912;-91
2023/05/09 00:53:13;;;;;;;;;;;;;;;11.61;80.07;101463.75;5029998;28;19925;-94
2023/05/09 00:55:41;;;;;;;;;;;;;;;11.62;79.60;101461.91;4988524;28;20462;-95
2023/05/09 00:58:06;;;;;;;;;;;;;;;11.53;79.71;101460.94;5004113;28;19925;-92
2023/05/09 01:00:33;;;;;;;;;;;;;;;11.51;79.42;101465.63;4988276;28;19921;-91
2023/05/09 01:03:05;;;;;;;;;;;;;;;11.54;79.33;101462.66;4978473;28;19991;-94
2023/05/09 01:05:36;;;;;;;;;;;;;;;11.54;79.61;101464.47;5007403;28;19944;-93
2023/05/09 01:08:05;;;;;;;;;;;;;;;11.46;79.90;101470.59;4989879;28;19955;-93
2023/05/09 01:10:42;;;;;;;;;;;;;;;11.52;80.25;101470.03;5009497;28;20015;-92
2023/05/09 01:13:29;;;;;;;;;;;;;;;11.53;80.07;101474.41;5004186;28;19943;-89
2023/05/09 01:16:00;;;;;;;;;;;;;;;11.36;80.27;101469.81;5011443;28;20016;-89
2023/05/09 01:18:47;;;;;;;;;;;;;;;11.37;79.23;101466.94;4997598;28;19936;-90
2023/05/09 01:21:14;;;;;;;;;;;;;;;11.32;79.03;101471.09;5009255;28;19921;-91
2023/05/09 01:23:43;;;;;;;;;;;;;;;11.40;77.86;101476.56;4981333;28;20011;-90
2023/05/09 01:26:24;;;;;;;;;;;;;;;11.36;77.44;101469.81;5011103;28;19926;-92
2023/05/09 01:28:58;;;;;;;;;;;;;;;11.29;77.40;101453.38;5012565;28;19923;-90
2023/05/09 01:31:25;;;;;;;;;;;;;;;11.15;77.31;101454.69;5014583;28;19932;-91
2023/05/09 01:33:55;;;;;;;;;;;;;;;11.25;76.41;101467.28;4997679;28;20377;-90
2023/05/09 01:36:21;;;;;;;;;;;;;;;11.23;76.11;101469.25;5005579;28;19925;-90
2023/05/09 01:38:50;;;;;;;;;;;;;;;11.18;76.04;101465.16;4985522;28;20425;-91
2023/05/09 01:41:15;;;;;;;;;;;;;;;11.12;75.86;101463.06;4965858;28;19921;-90
2023/05/09 01:43:42;;;;;;;;;;;;;;;11.10;75.74;101458.81;4981595;28;19939;-89
2023/05/09 01:46:07;;;;;;;;;;;;;;;11.19;76.16;101457.91;4983879;28;19922;-91
2023/05/09 01:48:33;;;;;;;;;;;;;;;11.22;76.54;101459.50;4982691;28;19932;-91
2023/05/09 01:51:00;;;;;;;;;;;;;;;11.12;76.18;101455.00;5005391;28;19925;-91
2023/05/09 01:53:28;;;;;;;;;;;;;;;11.10;76.23;101450.75;4997221;28;19929;-91
2023/05/09 01:55:53;;;;;;;;;;;;;;;10.98;76.58;101456.28;4980784;28;19922;-91
2023/05/09 01:58:21;;;;;;;;;;;;;;;10.75;77.44;101450.38;4991580;28;19917;-93
2023/05/09 02:00:47;;;;;;;;;;;;;;;10.83;77.58;101446.94;4990207;28;20323;-93
2023/05/09 02:03:13;;;;;;;;;;;;;;;10.86;77.51;101440.44;4979350;28;20015;-90
2023/05/09 02:05:39;;;;;;;;;;;;;;;10.74;78.26;101454.03;5003082;28;19963;-91
2023/05/09 02:08:07;;;;;;;;;;;;;;;10.70;78.68;101451.75;4972971;28;19922;-92
2023/05/09 02:10:33;;;;;;;;;;;;;;;10.66;78.96;101463.81;4997200;28;20019;-91
2023/05/09 02:12:59;;;;;;;;;;;;;;;10.60;79.06;101457.16;4993713;28;19996;-93
2023/05/09 02:15:26;;;;;;;;;;;;;;;10.53;79.28;101456.03;4990027;28;19996;-92
2023/05/09 02:17:53;;;;;;;;;;;;;;;10.53;79.64;101453.34;5008896;28;20380;-93
2023/05/09 02:20:19;;;;;;;;;;;;;;;10.51;79.94;101447.25;4973848;28;19922;-91
2023/05/09 02:22:48;;;;;;;;;;;;;;;10.50;80.00;101453.63;5006220;28;19968;-91
2023/05/09 02:25:17;;;;;;;;;;;;;;;10.33;80.79;101457.88;5000082;28;19965;-89
2023/05/09 02:27:44;;;;;;;;;;;;;;;10.47;80.37;101461.97;4980549;28;20425;-93
2023/05/09 02:30:12;;;;;;;;;;;;;;;10.44;80.73;101465.81;4966272;28;19931;-91
2023/05/09 02:35:46;;;;;;;;;;;;;;;10.34;80.99;101463.09;5025619;28;19933;-94
2023/05/09 02:38:20;;;;;;;;;;;;;;;10.38;81.59;101463.66;5027009;28;19985;-92
2023/05/09 02:40:50;;;;;;;;;;;;;;;10.30;81.66;101472.44;5017264;28;20038;-94
2023/05/09 02:43:18;;;;;;;;;;;;;;;10.40;81.95;101476.97;5029421;28;20380;-93
2023/05/09 02:45:49;;;;;;;;;;;;;;;10.47;81.65;101472.75;5032566;28;19976;-91
2023/05/09 02:48:20;;;;;;;;;;;;;;;10.41;81.47;101468.75;4978941;28;20011;-92
2023/05/09 02:50:46;;;;;;;;;;;;;;;10.40;82.20;101476.97;5010705;28;19983;-92
2023/05/09 02:53:11;;;;;;;;;;;;;;;10.36;82.21;101471.00;4979806;28;20067;-91
2023/05/09 02:55:37;;;;;;;;;;;;;;;10.45;81.99;101472.88;4993962;28;20467;-93
2023/05/09 02:58:08;;;;;;;;;;;;;;;10.53;81.89;101470.31;5004169;28;19924;-96
2023/05/09 03:00:33;;;;;;;;;;;;;;;10.48;81.94;101472.56;5018827;28;19921;-90
2023/05/09 03:03:02;;;;;;;;;;;;;;;10.49;81.71;101468.91;5007644;28;19980;-93
2023/05/09 03:05:36;;;;;;;;;;;;;;;10.52;81.46;101471.31;4995369;28;19913;-91
2023/05/09 03:08:05;;;;;;;;;;;;;;;10.45;81.61;101470.19;5002167;28;20459;-92
2023/05/09 03:10:33;;;;;;;;;;;;;;;10.47;81.21;101478.13;4996767;28;19951;-92
2023/05/09 03:13:14;;;;;;;;;;;;;;;10.56;81.38;101488.88;4996362;28;20012;-92
2023/05/09 03:15:39;;;;;;;;;;;;;;;10.61;80.99;101476.84;4983985;28;19921;-92
2023/05/09 03:18:06;;;;;;;;;;;;;;;10.62;80.91;101487.44;5001427;28;20279;-92
2023/05/09 03:20:31;;;;;;;;;;;;;;;10.68;80.64;101489.59;4992136;28;19921;-93
2023/05/09 03:22:57;;;;;;;;;;;;;;;10.73;80.55;101486.47;4977286;28;20350;-94
2023/05/09 03:25:25;;;;;;;;;;;;;;;10.62;80.72;101487.44;4993964;28;19929;-90
2023/05/09 03:27:54;;;;;;;;;;;;;;;10.73;80.41;101491.84;4989504;28;20360;-93
2023/05/09 03:30:21;;;;;;;;;;;;;;;10.77;80.32;101496.81;5012296;28;19987;-92
2023/05/09 03:32:48;;;;;;;;;;;;;;;10.78;80.37;101503.88;4989316;28;20384;-92
2023/05/09 03:35:16;;;;;;;;;;;;;;;10.75;80.56;101497.94;4977477;28;20349;-92
2023/05/09 03:37:47;;;;;;;;;;;;;;;10.80;79.83;101494.81;4983780;28;19932;-94
2023/05/09 03:40:13;;;;;;;;;;;;;;;10.78;79.84;101503.88;4991437;28;20017;-93
2023/05/09 03:45:43;;;;;;;;;;;;;;;10.86;80.14;101513.06;5073531;23;20017;-93
2023/05/09 03:48:14;;;;;;;;;;;;;;;10.85;80.46;101509.53;4983945;28;20479;-94
2023/05/09 03:50:44;;;;;;;;;;;;;;;11.02;79.96;101507.97;4984344;28;19982;-95
2023/05/09 03:53:38;;;;;;;;;;;;;;;11.05;80.10;101507.69;5011604;28;19928;-91
2023/05/09 03:56:12;;;;;;;;;;;;;;;11.15;79.24;101516.59;5018308;28;19984;-94
2023/05/09 03:58:42;;;;;;;;;;;;;;;11.19;78.88;101517.13;5004014;28;20008;-93
2023/05/09 04:01:13;;;;;;;;;;;;;;;11.15;78.53;101515.75;5007338;28;19964;-94
2023/05/09 04:03:40;;;;;;;;;;;;;;;11.12;78.84;101522.28;4986319;28;19960;-93
2023/05/09 04:06:24;;;;;;;;;;;;;;;11.06;79.42;101516.59;4983113;28;19958;-92
2023/05/09 04:08:50;;;;;;;;;;;;;;;11.08;79.91;101520.84;4979915;28;19922;-92
2023/05/09 04:11:22;;;;;;;;;;;;;;;11.09;80.08;101519.84;4978608;28;20366;-91
2023/05/09 04:13:49;;;;;;;;;;;;;;;11.04;79.82;101519.44;4984855;28;19953;-94
2023/05/09 04:16:16;;;;;;;;;;;;;;;11.10;80.08;101523.41;4986097;28;19925;-92
2023/05/09 04:18:42;;;;;;;;;;;;;;;11.11;80.26;101525.94;4988133;28;19977;-91
2023/05/09 04:21:09;;;;;;;;;;;;;;;11.12;80.11;101521.41;4967093;28;19980;-92
2023/05/09 04:23:37;;;;;;;;;;;;;;;11.16;80.37;101528.19;4980293;28;20017;-93
2023/05/09 04:26:03;;;;;;;;;;;;;;;11.25;79.71;101534.56;4988482;28;19926;-94
2023/05/09 04:28:30;;;;;;;;;;;;;;;11.22;79.87;101527.63;4984452;28;19925;-89
2023/05/09 04:30:55;;;;;;;;;;;;;;;11.32;79.84;101533.00;4983916;28;19975;-91
2023/05/09 04:33:27;;;;;;;;;;;;;;;11.36;79.27;101534.41;4983252;28;19933;-91
2023/05/09 04:35:54;;;;;;;;;;;;;;;11.38;79.63;101533.28;4997751;28;19952;-89
2023/05/09 04:38:20;;;;;;;;;;;;;;;11.33;78.98;101540.06;4974215;28;20298;-88
2023/05/09 04:40:47;;;;;;;;;;;;;;;11.35;79.10;101546.16;5019505;28;19925;-89
2023/05/09 04:43:13;;;;;;;;;;;;;;;11.43;78.62;101546.31;5002332;28;19936;-89
2023/05/09 04:45:40;;;;;;;;;;;;;;;11.47;79.44;101546.84;4975258;28;19966;-90
2023/05/09 04:48:05;;;;;;;;;;;;;;;11.50;79.11;101546.56;4977345;28;19930;-89
2023/05/09 04:50:32;;;;;;;;;;;;;;;11.61;78.69;101549.94;4955354;28;19932;-91
2023/05/09 04:52:59;;;;;;;;;;;;;;;11.82;78.68;101548.88;4977377;28;20008;-89
2023/05/09 04:55:28;;;;;;;;;;;;;;;11.96;78.05;101548.44;4987797;28;20045;-92
2023/05/09 04:57:53;;;;;;;;;;;;;;;11.95;77.37;101549.44;4997707;28;19926;-91
2023/05/09 05:00:24;;;;;;;;;;;;;;;12.15;77.47;101552.91;4989329;28;19978;-89
2023/05/09 05:02:55;;;;;;;;;;;;;;;12.23;76.65;101550.28;5006874;28;19929;-89
2023/05/09 05:05:20;;;;;;;;;;;;;;;12.37;76.37;101553.47;5013552;28;19928;-91
2023/05/09 05:07:47;;;;;;;;;;;;;;;12.46;74.65;101556.13;4999841;28;20368;-92
2023/05/09 05:10:12;;;;;;;;;;;;;;;12.63;74.54;101545.50;4977620;28;19918;-92
2023/05/09 05:12:39;;;;;;;;;;;;;;;12.67;72.86;101553.13;4980572;28;20421;-91
2023/05/09 05:15:05;;;;;;;;;;;;;;;12.62;72.96;101554.63;4974450;28;19943;-92
2023/05/09 05:17:31;;;;;;;;;;;;;;;12.71;73.35;101537.47;4973360;28;19921;-92
2023/05/09 05:19:56;;;;;;;;;;;;;;;12.78;72.26;101554.78;4986037;28;19929;-91
2023/05/09 05:22:26;;;;;;;;;;;;;;;12.98;72.98;101539.25;4977546;28;20008;-93
2023/05/09 05:24:52;;;;;;;;;;;;;;;13.10;72.25;101547.97;4999808;28;20409;-92
2023/05/09 05:27:18;;;;;;;;;;;;;;;13.16;71.96;101550.06;4993489;28;19933;-92
2023/05/09 05:29:46;;;;;;;;;;;;;;;13.24;71.53;101547.41;4995346;28;19933;-89
2023/05/09 05:32:12;;;;;;;;;;;;;;;13.28;70.93;101554.22;4978885;28;19921;-90
2023/05/09 05:34:38;;;;;;;;;;;;;;;13.32;69.77;101556.59;4977591;28;19926;-94
2023/05/09 05:37:03;;;;;;;;;;;;;;;13.50;70.65;101552.00;4974187;28;19942;-93
2023/05/09 05:39:30;;;;;;;;;;;;;;;13.69;70.91;101561.75;4968066;28;19988;-89
2023/05/09 05:41:58;;;;;;;;;;;;;;;13.71;68.80;101557.88;4974400;28;19922;-93
2023/05/09 05:44:44;;;;;;;;;;;;;;;14.03;68.59;101556.38;4998921;28;19961;-92
2023/05/09 05:47:09;;;;;;;;;;;;;;;14.19;68.22;101560.16;4974904;28;20306;-92
2023/05/09 05:49:35;;;;;;;;;;;;;;;14.29;66.11;101550.06;4982532;28;20079;-93
2023/05/09 05:52:06;;;;;;;;;;;;;;;14.45;64.74;101549.28;4978726;28;19922;-95
2023/05/09 05:54:32;;;;;;;;;;;;;;;14.45;64.72;101551.97;4986102;28;20036;-92
2023/05/09 05:56:59;;;;;;;;;;;;;;;14.54;64.77;101557.28;4980665;28;19929;-91
2023/05/09 05:59:27;;;;;;;;;;;;;;;14.45;64.27;101549.28;4978325;28;20012;-92
2023/05/09 06:01:52;;;;;;;;;;;;;;;14.46;64.57;101551.81;4971261;28;19992;-92
2023/05/09 06:04:19;;;;;;;;;;;;;;;14.49;64.27;101551.50;4980674;28;20354;-93
2023/05/09 06:06:44;;;;;;;;;;;;;;;14.53;64.75;101550.13;4972442;28;19929;-91
2023/05/09 06:09:09;;;;;;;;;;;;;;;14.63;63.76;101563.53;4971805;28;19922;-92
2023/05/09 06:11:39;;;;;;;;;;;;;;;14.60;64.32;101560.34;4976187;28;20008;-93
2023/05/09 06:14:04;;;;;;;;;;;;;;;14.55;64.86;101575.19;4991165;28;19910;-92
2023/05/09 06:16:30;;;;;;;;;;;;;;;14.73;63.59;101558.84;4997923;28;19916;-89
2023/05/09 06:18:58;;;;;;;;;;;;;;;14.39;63.84;101561.59;4996345;28;19957;-92
2023/05/09 06:21:33;;;;;;;;;;;;;;;14.72;63.83;101562.53;5002205;28;19921;-92
2023/05/09 06:23:58;;;;;;;;;;;;;;;15.14;62.30;101558.03;4995944;28;19929;-94
2023/05/09 06:26:27;;;;;;;;;;;;;;;15.27;61.88;101550.25;4978499;28;19924;-93
2023/05/09 06:29:04;;;;;;;;;;;;;;;15.36;62.03;101556.50;4988245;28;19925;-92
2023/05/09 06:31:37;;;;;;;;;;;;;;;15.67;61.37;101555.78;4995276;28;19975;-96
2023/05/09 06:34:09;;;;;;;;;;;;;;;16.01;59.15;101558.25;4997649;28;19922;-90
2023/05/09 06:36:38;;;;;;;;;;;;;;;15.71;59.13;101571.56;4994712;28;20286;-89
2023/05/09 06:39:04;;;;;;;;;;;;;;;15.69;59.56;101562.72;4996905;28;19921;-88
2023/05/09 06:41:34;;;;;;;;;;;;;;;15.54;60.24;101567.16;5026776;28;19921;-88
2023/05/09 06:44:01;;;;;;;;;;;;;;;15.67;59.62;101572.91;5015623;28;19933;-91
2023/05/09 06:46:29;;;;;;;;;;;;;;;15.79;60.08;101566.13;4985905;28;19991;-88
2023/05/09 06:48:55;;;;;;;;;;;;;;;15.72;59.42;101565.13;4988060;28;19921;-87
2023/05/09 06:51:21;;;;;;;;;;;;;;;15.64;59.84;101570.53;4981285;28;19926;-89
2023/05/09 06:53:47;;;;;;;;;;;;;;;15.43;59.98;101564.78;5004876;28;20356;-90
2023/05/09 06:56:13;;;;;;;;;;;;;;;15.41;60.48;101563.09;4982003;28;19965;-84
2023/05/09 06:58:41;;;;;;;;;;;;;;;15.40;60.35;101563.25;4992699;28;19926;-88
2023/05/09 07:01:09;;;;;;;;;;;;;;;15.59;59.75;101560.22;5013705;28;19930;-87
2023/05/09 07:03:36;;;;;;;;;;;;;;;15.77;58.87;101561.88;4994204;28;19989;-87
2023/05/09 07:06:01;;;;;;;;;;;;;;;15.83;57.82;101569.34;5005899;28;20049;-85
2023/05/09 07:08:26;;;;;;;;;;;;;;;15.90;58.02;101555.94;5005046;28;20004;-89
2023/05/09 07:10:59;;;;;;;;;;;;;;;16.04;58.00;101552.50;4982309;28;20441;-92
2023/05/09 07:13:25;;;;;;;;;;;;;;;16.47;56.84;101566.53;4979226;28;19960;-94
2023/05/09 07:15:50;;;;;;;;;;;;;;;16.48;56.35;101570.09;4977513;28;19934;-87
2023/05/09 07:18:16;;;;;;;;;;;;;;;16.28;56.60;101558.84;4984052;28;19918;-91
2023/05/09 07:20:42;;;;;;;;;;;;;;;16.48;56.05;101560.06;4983523;28;19922;-92
2023/05/09 07:23:11;;;;;;;;;;;;;;;16.54;56.32;101559.38;4999580;28;19922;-95
2023/05/09 07:25:39;;;;;;;;;;;;;;;16.55;56.11;101550.22;5004709;28;19928;-90
2023/05/09 07:28:11;;;;;;;;;;;;;;;16.32;56.77;101561.03;4991238;28;19929;-90
2023/05/09 07:30:36;;;;;;;;;;;;;;;16.04;56.43;101557.91;4987027;28;20008;-91
2023/05/09 07:33:02;;;;;;;;;;;;;;;15.79;57.16;101555.28;4983166;28;19965;-91
2023/05/09 07:35:28;;;;;;;;;;;;;;;15.22;58.42;101557.16;4977511;28;19922;-89
2023/05/09 07:37:53;;;;;;;;;;;;;;;14.73;60.59;101568.81;4987448;28;19971;-86
2023/05/09 07:40:20;;;;;;;;;;;;;;;14.71;61.35;101576.25;4968532;28;19922;-89
2023/05/09 07:42:48;;;;;;;;;;;;;;;14.37;62.02;101577.13;4974448;28;19926;-89
2023/05/09 07:45:19;;;;;;;;;;;;;;;14.43;62.19;101579.19;5008741;28;20007;-89
2023/05/09 07:47:46;;;;;;;;;;;;;;;14.41;62.93;101578.50;4992127;28;20020;-91
2023/05/09 07:50:12;;;;;;;;;;;;;;;14.43;62.59;101584.59;5003879;28;19950;-86
2023/05/09 07:52:37;;;;;;;;;;;;;;;14.23;62.74;101583.16;4995230;28;20332;-89
2023/05/09 07:55:02;;;;;;;;;;;;;;;14.25;62.27;101582.00;4998423;28;20085;-86
2023/05/09 07:57:30;;;;;;;;;;;;;;;14.24;62.63;101590.28;5001511;28;19928;-89
2023/05/09 07:59:55;;;;;;;;;;;;;;;14.26;62.80;101593.69;4988190;28;19988;-91
2023/05/09 08:02:21;;;;;;;;;;;;;;;14.43;62.69;101590.00;4969402;28;19926;-86
2023/05/09 08:04:47;;;;;;;;;;;;;;;14.50;62.70;101595.63;4974024;28;20228;-89
2023/05/09 08:07:36;;;;;;;;;;;;;;;14.55;61.49;101588.72;5004586;28;19925;-90
2023/05/09 08:10:03;;;;;;;;;;;;;;;14.67;61.45;101593.84;4981687;28;20366;-93
2023/05/09 08:12:29;;;;;;;;;;;;;;;14.87;60.91;101578.16;4990880;28;20044;-92
2023/05/09 08:14:57;;;;;;;;;;;;;;;14.96;58.72;101590.66;4988265;28;20663;-90
2023/05/09 08:17:22;;;;;;;;;;;;;;;14.94;59.26;101588.16;5002561;28;19980;-94
2023/05/09 08:20:18;;;;;;;;;;;;;;;15.09;59.08;101584.78;5144697;22;19935;-95
2023/05/09 08:22:44;;;;;;;;;;;;;;;15.23;58.57;101575.97;5251251;22;20455;-94
2023/05/09 08:25:38;;;;;;;;;;;;;;;15.38;59.17;101577.00;5035099;23;19914;-93
2023/05/09 08:28:07;;;;;;;;;;;;;;;15.77;57.78;101576.28;5025559;28;19941;-93
2023/05/09 08:30:33;;;;;;;;;;;;;;;15.87;56.79;101575.25;5015976;28;20000;-94
2023/05/09 08:33:09;;;;;;;;;;;;;;;15.77;56.03;101576.28;5005378;28;19926;-92
2023/05/09 08:36:01;;;;;;;;;;;;;;;15.47;57.30;101576.97;4995514;28;20286;-93
2023/05/09 08:38:30;;;;;;;;;;;;;;;15.33;58.30;101576.63;5378469;23;19930;-91
2023/05/09 08:41:05;;;;;;;;;;;;;;;15.32;58.00;101572.25;5010768;28;19948;-93
2023/05/09 08:43:33;;;;;;;;;;;;;;;15.09;58.54;101584.78;5010840;28;19987;-93
2023/05/09 08:46:01;;;;;;;;;;;;;;;15.24;58.56;101583.09;5020628;28;19921;-92
2023/05/09 08:48:28;;;;;;;;;;;;;;;15.26;58.44;101575.63;5016373;28;20020;-89
2023/05/09 08:50:55;;;;;;;;;;;;;;;15.72;57.66;101581.38;5006066;28;19940;-93
2023/05/09 08:53:22;;;;;;;;;;;;;;;16.03;56.81;101575.19;5003862;28;19976;-91
2023/05/09 08:55:49;;;;;;;;;;;;;;;16.31;54.75;101574.75;5025838;28;19941;-90
2023/05/09 08:58:18;;;;;;;;;;;;;;;16.56;52.64;101565.47;5011829;28;20031;-89
2023/05/09 09:03:51;;;;;;;;;;;;;;;17.13;51.46;101563.41;5033095;28;19936;-96
2023/05/09 09:08:55;;;;;;;;;;;;;;;17.95;50.36;101557.22;5016523;28;19929;-95
2023/05/09 09:11:38;;;;;;;;;;;;;;;17.86;50.70;101548.28;4991832;28;20040;-96
2023/05/09 09:14:19;;;;;;;;;;;;;;;18.01;49.92;101557.31;4985111;28;19925;-88
2023/05/09 09:16:46;;;;;;;;;;;;;;;17.26;51.79;101559.06;4979503;28;20322;-91
2023/05/09 09:19:12;;;;;;;;;;;;;;;17.09;51.99;101547.50;4982907;28;19937;-90
2023/05/09 09:21:43;;;;;;;;;;;;;;;16.37;52.78;101557.78;4981015;28;19932;-91
2023/05/09 09:24:08;;;;;;;;;;;;;;;15.98;55.03;101553.19;5016230;28;19980;-92
2023/05/09 09:26:36;;;;;;;;;;;;;;;16.02;55.61;101549.09;4984083;28;19917;-91
2023/05/09 09:29:01;;;;;;;;;;;;;;;15.87;56.89;101550.84;5008984;28;20444;-89
2023/05/09 09:31:31;;;;;;;;;;;;;;;15.79;57.88;101557.13;4993385;28;19969;-89
2023/05/09 09:34:00;;;;;;;;;;;;;;;15.89;58.07;101560.50;4995561;28;19976;-88
2023/05/09 09:36:35;;;;;;;;;;;;;;;15.76;58.75;101554.78;4975855;28;19929;-89
2023/05/09 09:39:03;;;;;;;;;;;;;;;15.79;58.86;101560.69;4978852;28;19926;-90
2023/05/09 09:41:35;;;;;;;;;;;;;;;15.83;58.58;101562.03;4995448;28;19965;-88
2023/05/09 09:44:10;;;;;;;;;;;;;;;15.71;58.93;101566.16;4995000;28;20389;-90
2023/05/09 09:46:43;;;;;;;;;;;;;;;15.63;58.64;101566.97;4994880;28;20691;-89
2023/05/09 09:49:10;;;;;;;;;;;;;;;15.29;58.62;101569.03;5013723;28;19933;-90
2023/05/09 09:51:37;;;;;;;;;;;;;;;15.40;59.29;101568.69;5000486;28;19926;-90
2023/05/09 09:54:03;;;;;;;;;;;;;;;15.61;58.92;101562.72;5016626;28;19979;-88
2023/05/09 09:56:44;;;;;;;;;;;;;;;15.58;59.52;101563.09;5018655;28;19925;-86
2023/05/09 09:59:10;;;;;;;;;;;;;;;15.50;58.89;101560.38;4986410;28;20017;-87
2023/05/09 10:01:36;;;;;;;;;;;;;;;15.22;59.68;101577.00;5027210;28;19922;-90
2023/05/09 10:04:03;;;;;;;;;;;;;;;14.92;61.29;101573.94;5029190;28;19924;-89
2023/05/09 10:06:32;;;;;;;;;;;;;;;14.44;61.02;101574.63;4997001;28;19920;-89
2023/05/09 10:09:00;;;;;;;;;;;;;;;14.21;61.28;101574.34;5000874;28;19913;-90
2023/05/09 10:11:27;;;;;;;;;;;;;;;13.88;60.72;101593.13;5029697;28;19921;-91
2023/05/09 10:13:52;;;;;;;;;;;;;;;13.63;61.82;101587.56;5000459;28;20106;-90
2023/05/09 10:16:19;;;;;;;;;;;;;;;13.84;61.58;101583.66;4997122;28;20392;-91
2023/05/09 10:18:44;;;;;;;;;;;;;;;13.94;59.54;101581.69;4996011;28;19941;-89
2023/05/09 10:21:12;;;;;;;;;;;;;;;14.05;59.32;101586.81;5012918;28;19924;-90
2023/05/09 10:23:37;;;;;;;;;;;;;;;14.05;58.71;101586.81;4983046;28;20016;-90
2023/05/09 10:26:08;;;;;;;;;;;;;;;13.98;59.49;101588.47;5013871;28;19949;-89
2023/05/09 10:28:35;;;;;;;;;;;;;;;14.08;59.46;101585.63;5012799;28;19928;-91
2023/05/09 10:31:07;;;;;;;;;;;;;;;14.16;59.45;101582.97;4976210;28;19922;-90
2023/05/09 10:33:40;;;;;;;;;;;;;;;14.22;59.39;101581.47;5012555;28;20008;-90
2023/05/09 10:36:05;;;;;;;;;;;;;;;14.24;58.29;101580.31;5011529;28;19926;-88
2023/05/09 10:38:31;;;;;;;;;;;;;;;14.26;58.77;101582.84;4993172;28;19956;-89
2023/05/09 10:40:57;;;;;;;;;;;;;;;14.07;60.08;101584.81;4992907;28;19925;-89
2023/05/09 10:43:26;;;;;;;;;;;;;;;13.92;61.18;101584.53;4995055;28;20087;-88
2023/05/09 10:45:51;;;;;;;;;;;;;;;14.10;61.37;101581.75;5001102;28;19932;-90
2023/05/09 10:48:18;;;;;;;;;;;;;;;14.23;61.74;101583.16;5008659;28;19913;-90
2023/05/09 10:50:43;;;;;;;;;;;;;;;14.55;62.30;101579.78;5023522;28;19936;-89
2023/05/09 10:53:27;;;;;;;;;;;;;;;14.64;64.20;101580.66;4996511;28;20285;-90
2023/05/09 10:56:00;;;;;;;;;;;;;;;15.09;63.56;101577.50;5003473;28;20021;-89
2023/05/09 10:58:32;;;;;;;;;;;;;;;15.34;63.24;101572.09;4994068;28;19922;-91
2023/05/09 11:01:00;;;;;;;;;;;;;;;15.63;63.01;101571.53;5010380;28;20023;-90
2023/05/09 11:03:29;;;;;;;;;;;;;;;16.43;60.76;101570.63;4979498;28;19926;-90
2023/05/09 11:05:56;;;;;;;;;;;;;;;15.78;61.85;101567.16;4996332;28;19925;-90
2023/05/09 11:08:36;;;;;;;;;;;;;;;15.20;63.37;101573.63;4999821;28;19922;-93
2023/05/09 11:11:05;;;;;;;;;;;;;;;16.25;61.29;101569.03;5001194;28;20394;-90
2023/05/09 11:13:38;;;;;;;;;;;;;;;16.77;59.93;101581.13;4995547;28;19928;-90
2023/05/09 11:16:05;;;;;;;;;;;;;;;17.42;57.76;101576.22;4982873;28;19922;-91
2023/05/09 11:18:33;;;;;;;;;;;;;;;17.41;57.44;101567.25;4978984;28;20335;-87
2023/05/09 11:20:59;;;;;;;;;;;;;;;17.26;57.35;101591.69;4978127;28;19919;-91
2023/05/09 11:23:24;;;;;;;;;;;;;;;15.73;60.07;101583.09;4984988;28;19934;-89
2023/05/09 11:25:53;;;;;;;;;;;;;;;15.66;60.80;101582.03;4984870;28;19917;-89
2023/05/09 11:28:32;;;;;;;;;;;;;;;15.36;62.18;101587.16;4994086;28;19921;-89
2023/05/09 11:31:17;;;;;;;;;;;;;;;14.62;65.03;101590.78;4996799;28;19917;-89
2023/05/09 11:33:46;;;;;;;;;;;;;;;14.62;65.47;101599.75;4994345;28;19993;-88
2023/05/09 11:36:17;;;;;;;;;;;;;;;14.59;66.20;101604.66;4997724;28;19928;-90
2023/05/09 11:38:47;;;;;;;;;;;;;;;14.17;66.08;101594.66;4996579;28;19925;-90
2023/05/09 11:41:16;;;;;;;;;;;;;;;13.96;66.71;101604.00;5017619;28;19977;-88
2023/05/09 11:43:43;;;;;;;;;;;;;;;13.43;69.60;101596.88;4999883;28;20016;-88
2023/05/09 11:46:09;;;;;;;;;;;;;;;13.51;69.47;101599.66;4999615;28;19933;-89
2023/05/09 11:48:38;;;;;;;;;;;;;;;13.55;69.60;101592.91;4980457;28;20363;-88
2023/05/09 11:51:04;;;;;;;;;;;;;;;13.72;69.50;101600.13;4995748;28;19956;-90
2023/05/09 11:53:32;;;;;;;;;;;;;;;13.86;69.18;101592.44;4982328;28;19969;-90
2023/05/09 11:55:59;;;;;;;;;;;;;;;14.13;68.31;101594.09;5003216;28;19989;-93
2023/05/09 11:58:26;;;;;;;;;;;;;;;13.88;68.60;101579.59;5016592;28;20403;-91
2023/05/09 12:01:01;;;;;;;;;;;;;;;13.81;68.98;101589.34;5014232;28;20370;-90
2023/05/09 12:03:49;;;;;;;;;;;;;;;13.85;68.75;101585.34;4996501;28;19997;-89
2023/05/09 12:06:17;;;;;;;;;;;;;;;13.77;69.15;101585.31;4981348;28;19944;-88
2023/05/09 12:08:45;;;;;;;;;;;;;;;13.71;69.38;101601.13;4996063;28;19933;-89
2023/05/09 12:11:13;;;;;;;;;;;;;;;13.83;69.40;101584.66;4981664;28;20322;-89
2023/05/09 12:13:51;;;;;;;;;;;;;;;14.11;68.35;101585.31;5014569;28;19921;-91
2023/05/09 12:16:17;;;;;;;;;;;;;;;14.02;68.69;101580.88;5003683;28;19917;-91
2023/05/09 12:18:49;;;;;;;;;;;;;;;14.18;68.36;101591.75;4979522;28;20307;-90
2023/05/09 12:21:17;;;;;;;;;;;;;;;13.83;68.97;101574.69;4977420;28;20397;-89
2023/05/09 12:23:45;;;;;;;;;;;;;;;14.07;68.53;101576.69;4988263;28;19932;-90
2023/05/09 12:26:11;;;;;;;;;;;;;;;14.13;69.05;101573.31;5000624;28;20013;-91
2023/05/09 12:28:38;;;;;;;;;;;;;;;14.23;67.82;101575.06;4996853;28;20021;-92
2023/05/09 12:31:05;;;;;;;;;;;;;;;14.15;66.58;101560.47;4982017;28;19929;-91
2023/05/09 12:33:53;;;;;;;;;;;;;;;14.23;66.85;101567.78;4989520;28;19932;-94
2023/05/09 12:36:26;;;;;;;;;;;;;;;14.29;67.01;101569.00;5018764;28;19921;-96
2023/05/09 12:38:54;;;;;;;;;;;;;;;14.30;66.32;101563.41;4991161;28;19993;-93
2023/05/09 12:41:20;;;;;;;;;;;;;;;13.93;67.87;101571.88;4982985;28;19922;-83
2023/05/09 12:44:12;;;;;;;;;;;;;;;13.86;68.67;101587.91;5023550;28;19925;-92
2023/05/09 12:46:38;;;;;;;;;;;;;;;13.66;69.80;101575.59;5016061;28;19922;-89
2023/05/09 12:49:24;;;;;;;;;;;;;;;13.54;70.16;101572.31;4985473;28;19975;-90
2023/05/09 12:51:55;;;;;;;;;;;;;;;13.49;70.46;101572.78;5017516;28;19921;-94
2023/05/09 12:54:21;;;;;;;;;;;;;;;13.55;70.54;101574.00;5001577;28;19919;-91
2023/05/09 12:56:47;;;;;;;;;;;;;;;13.26;71.26;101580.50;5017178;28;19921;-91